sensor_id;sensor_type;location;lat;lon;timestamp;P1;durP1;ratioP1;P2;durP2;ratioP2
41629;SDS011;27322;49.488;8.480;2024-03-17T00:00:16;6.53;;;2.38;;
41629;SDS011;27322;49.488;8.480;2024-03-17T00:02:43;5.10;;;2.45;;
41629;SDS011;27322;49.488;8.480;2024-03-17T00:05:09;4.15;;;1.92;;
41629;SDS011;27322;49.488;8.480;2024-03-17T00:07:35;5.35;;;2.35;;
41629;SDS011;27322;49.488;8.480;2024-03-17T00:10:00;5.15;;;2.50;;
41629;SDS011;27322;49.488;8.480;2024-03-17T00:12:26;5.47;;;2.30;;
41629;SDS011;27322;49.488;8.480;2024-03-17T00:14:52;5.90;;;2.50;;
41629;SDS011;27322;49.488;8.480;2024-03-17T00:17:17;4.07;;;2.28;;
41629;SDS011;27322;49.488;8.480;2024-03-17T00:19:45;5.10;;;2.40;;
41629;SDS011;27322;49.488;8.480;2024-03-17T00:22:11;4.80;;;2.20;;
41629;SDS011;27322;49.488;8.480;2024-03-17T00:24:40;4.80;;;2.40;;
41629;SDS011;27322;49.488;8.480;2024-03-17T00:27:07;6.07;;;2.78;;
41629;SDS011;27322;49.488;8.480;2024-03-17T00:29:33;7.13;;;3.10;;
41629;SDS011;27322;49.488;8.480;2024-03-17T00:31:58;7.32;;;3.15;;
41629;SDS011;27322;49.488;8.480;2024-03-17T00:34:24;6.22;;;3.08;;
41629;SDS011;27322;49.488;8.480;2024-03-17T00:36:50;6.47;;;3.33;;
41629;SDS011;27322;49.488;8.480;2024-03-17T00:39:16;7.15;;;3.13;;
41629;SDS011;27322;49.488;8.480;2024-03-17T00:41:43;5.75;;;3.20;;
41629;SDS011;27322;49.488;8.480;2024-03-17T00:44:09;7.82;;;3.70;;
41629;SDS011;27322;49.488;8.480;2024-03-17T00:46:34;6.32;;;3.45;;
41629;SDS011;27322;49.488;8.480;2024-03-17T00:49:00;6.18;;;3.35;;
41629;SDS011;27322;49.488;8.480;2024-03-17T00:51:26;5.85;;;3.25;;
41629;SDS011;27322;49.488;8.480;2024-03-17T00:53:51;6.57;;;3.33;;
41629;SDS011;27322;49.488;8.480;2024-03-17T00:56:17;6.22;;;3.05;;
41629;SDS011;27322;49.488;8.480;2024-03-17T00:58:43;7.07;;;3.25;;
41629;SDS011;27322;49.488;8.480;2024-03-17T01:01:10;5.38;;;3.08;;
41629;SDS011;27322;49.488;8.480;2024-03-17T01:03:36;6.13;;;2.90;;
41629;SDS011;27322;49.488;8.480;2024-03-17T01:06:04;6.32;;;2.90;;
41629;SDS011;27322;49.488;8.480;2024-03-17T01:08:30;6.53;;;3.10;;
41629;SDS011;27322;49.488;8.480;2024-03-17T01:10:56;6.13;;;2.88;;
41629;SDS011;27322;49.488;8.480;2024-03-17T01:13:23;4.80;;;2.20;;
41629;SDS011;27322;49.488;8.480;2024-03-17T01:15:52;7.72;;;3.22;;
41629;SDS011;27322;49.488;8.480;2024-03-17T01:18:18;5.53;;;3.00;;
41629;SDS011;27322;49.488;8.480;2024-03-17T01:20:44;7.43;;;3.38;;
41629;SDS011;27322;49.488;8.480;2024-03-17T01:23:09;7.60;;;3.15;;
41629;SDS011;27322;49.488;8.480;2024-03-17T01:25:35;5.53;;;2.97;;
41629;SDS011;27322;49.488;8.480;2024-03-17T01:28:02;5.68;;;3.33;;
41629;SDS011;27322;49.488;8.480;2024-03-17T01:30:29;5.85;;;2.88;;
41629;SDS011;27322;49.488;8.480;2024-03-17T01:32:54;6.47;;;2.95;;
41629;SDS011;27322;49.488;8.480;2024-03-17T01:35:20;5.43;;;2.92;;
41629;SDS011;27322;49.488;8.480;2024-03-17T01:37:46;5.72;;;3.03;;
41629;SDS011;27322;49.488;8.480;2024-03-17T01:40:12;7.78;;;3.45;;
41629;SDS011;27322;49.488;8.480;2024-03-17T01:42:38;5.47;;;2.90;;
41629;SDS011;27322;49.488;8.480;2024-03-17T01:47:42;8.52;;;3.97;;
41629;SDS011;27322;49.488;8.480;2024-03-17T01:50:08;7.00;;;3.60;;
41629;SDS011;27322;49.488;8.480;2024-03-17T01:52:34;6.38;;;3.28;;
41629;SDS011;27322;49.488;8.480;2024-03-17T01:55:02;7.65;;;3.30;;
41629;SDS011;27322;49.488;8.480;2024-03-17T01:57:28;5.95;;;3.08;;
41629;SDS011;27322;49.488;8.480;2024-03-17T01:59:54;7.22;;;3.63;;
41629;SDS011;27322;49.488;8.480;2024-03-17T02:02:22;7.50;;;3.40;;
41629;SDS011;27322;49.488;8.480;2024-03-17T02:04:47;7.00;;;3.72;;
41629;SDS011;27322;49.488;8.480;2024-03-17T02:07:13;6.28;;;3.60;;
41629;SDS011;27322;49.488;8.480;2024-03-17T02:09:40;8.10;;;4.55;;
41629;SDS011;27322;49.488;8.480;2024-03-17T02:12:06;6.32;;;3.75;;
41629;SDS011;27322;49.488;8.480;2024-03-17T02:14:32;10.70;;;4.93;;
41629;SDS011;27322;49.488;8.480;2024-03-17T02:16:58;8.27;;;4.10;;
41629;SDS011;27322;49.488;8.480;2024-03-17T02:19:24;8.10;;;4.25;;
41629;SDS011;27322;49.488;8.480;2024-03-17T02:21:50;7.68;;;3.78;;
41629;SDS011;27322;49.488;8.480;2024-03-17T02:24:16;6.90;;;3.67;;
41629;SDS011;27322;49.488;8.480;2024-03-17T02:26:41;8.82;;;4.22;;
41629;SDS011;27322;49.488;8.480;2024-03-17T02:29:07;7.90;;;3.83;;
41629;SDS011;27322;49.488;8.480;2024-03-17T02:31:32;6.93;;;3.22;;
41629;SDS011;27322;49.488;8.480;2024-03-17T02:33:58;6.53;;;3.50;;
41629;SDS011;27322;49.488;8.480;2024-03-17T02:36:24;6.20;;;3.45;;
41629;SDS011;27322;49.488;8.480;2024-03-17T02:38:49;7.18;;;3.78;;
41629;SDS011;27322;49.488;8.480;2024-03-17T02:41:33;5.85;;;3.17;;
41629;SDS011;27322;49.488;8.480;2024-03-17T02:43:59;7.88;;;3.72;;
41629;SDS011;27322;49.488;8.480;2024-03-17T02:46:27;6.72;;;4.00;;
41629;SDS011;27322;49.488;8.480;2024-03-17T02:48:54;7.47;;;4.07;;
41629;SDS011;27322;49.488;8.480;2024-03-17T02:51:20;8.63;;;4.10;;
41629;SDS011;27322;49.488;8.480;2024-03-17T02:53:47;7.97;;;3.80;;
41629;SDS011;27322;49.488;8.480;2024-03-17T02:56:14;7.70;;;4.03;;
41629;SDS011;27322;49.488;8.480;2024-03-17T02:58:44;6.97;;;3.88;;
41629;SDS011;27322;49.488;8.480;2024-03-17T03:01:11;8.73;;;4.15;;
41629;SDS011;27322;49.488;8.480;2024-03-17T03:03:37;7.45;;;4.00;;
41629;SDS011;27322;49.488;8.480;2024-03-17T03:06:03;8.57;;;4.70;;
41629;SDS011;27322;49.488;8.480;2024-03-17T03:08:33;9.93;;;4.85;;
41629;SDS011;27322;49.488;8.480;2024-03-17T03:11:00;9.18;;;4.60;;
41629;SDS011;27322;49.488;8.480;2024-03-17T03:13:26;8.25;;;4.28;;
41629;SDS011;27322;49.488;8.480;2024-03-17T03:15:52;8.40;;;4.78;;
41629;SDS011;27322;49.488;8.480;2024-03-17T03:18:18;9.82;;;5.20;;
41629;SDS011;27322;49.488;8.480;2024-03-17T03:20:49;8.77;;;4.43;;
41629;SDS011;27322;49.488;8.480;2024-03-17T03:25:44;10.13;;;4.75;;
41629;SDS011;27322;49.488;8.480;2024-03-17T03:28:10;9.15;;;4.90;;
41629;SDS011;27322;49.488;8.480;2024-03-17T03:30:36;8.65;;;4.60;;
41629;SDS011;27322;49.488;8.480;2024-03-17T03:33:02;9.45;;;4.63;;
41629;SDS011;27322;49.488;8.480;2024-03-17T03:35:29;10.18;;;4.40;;
41629;SDS011;27322;49.488;8.480;2024-03-17T03:37:55;8.93;;;5.18;;
41629;SDS011;27322;49.488;8.480;2024-03-17T03:40:21;11.52;;;4.93;;
41629;SDS011;27322;49.488;8.480;2024-03-17T03:42:47;12.75;;;5.13;;
41629;SDS011;27322;49.488;8.480;2024-03-17T03:45:13;11.30;;;5.20;;
41629;SDS011;27322;49.488;8.480;2024-03-17T03:47:42;8.10;;;4.60;;
41629;SDS011;27322;49.488;8.480;2024-03-17T03:50:08;9.27;;;4.22;;
41629;SDS011;27322;49.488;8.480;2024-03-17T03:52:37;10.07;;;4.72;;
41629;SDS011;27322;49.488;8.480;2024-03-17T03:55:05;8.75;;;4.57;;
41629;SDS011;27322;49.488;8.480;2024-03-17T03:57:32;8.32;;;5.00;;
41629;SDS011;27322;49.488;8.480;2024-03-17T04:00:02;8.13;;;4.38;;
41629;SDS011;27322;49.488;8.480;2024-03-17T04:02:47;9.15;;;4.95;;
41629;SDS011;27322;49.488;8.480;2024-03-17T04:05:17;8.75;;;4.75;;
41629;SDS011;27322;49.488;8.480;2024-03-17T04:07:44;9.48;;;5.15;;
41629;SDS011;27322;49.488;8.480;2024-03-17T04:10:11;9.38;;;4.97;;
41629;SDS011;27322;49.488;8.480;2024-03-17T04:12:37;9.85;;;5.07;;
41629;SDS011;27322;49.488;8.480;2024-03-17T04:15:03;9.00;;;4.70;;
41629;SDS011;27322;49.488;8.480;2024-03-17T04:17:31;10.05;;;5.30;;
41629;SDS011;27322;49.488;8.480;2024-03-17T04:19:57;9.38;;;4.80;;
41629;SDS011;27322;49.488;8.480;2024-03-17T04:22:23;10.48;;;4.60;;
41629;SDS011;27322;49.488;8.480;2024-03-17T04:24:49;9.73;;;5.03;;
41629;SDS011;27322;49.488;8.480;2024-03-17T04:27:21;9.00;;;4.10;;
41629;SDS011;27322;49.488;8.480;2024-03-17T04:29:51;8.55;;;4.20;;
41629;SDS011;27322;49.488;8.480;2024-03-17T04:32:18;7.40;;;4.10;;
41629;SDS011;27322;49.488;8.480;2024-03-17T04:34:44;8.48;;;4.00;;
41629;SDS011;27322;49.488;8.480;2024-03-17T04:37:10;7.80;;;4.50;;
41629;SDS011;27322;49.488;8.480;2024-03-17T04:39:39;11.70;;;5.38;;
41629;SDS011;27322;49.488;8.480;2024-03-17T04:42:07;8.75;;;4.90;;
41629;SDS011;27322;49.488;8.480;2024-03-17T04:44:33;7.70;;;4.22;;
41629;SDS011;27322;49.488;8.480;2024-03-17T04:46:59;8.48;;;4.18;;
41629;SDS011;27322;49.488;8.480;2024-03-17T04:49:25;7.38;;;3.85;;
41629;SDS011;27322;49.488;8.480;2024-03-17T04:51:50;7.20;;;3.83;;
41629;SDS011;27322;49.488;8.480;2024-03-17T04:54:16;7.32;;;4.20;;
41629;SDS011;27322;49.488;8.480;2024-03-17T04:56:41;8.32;;;4.28;;
41629;SDS011;27322;49.488;8.480;2024-03-17T04:59:07;8.18;;;4.28;;
41629;SDS011;27322;49.488;8.480;2024-03-17T05:01:33;7.85;;;4.30;;
41629;SDS011;27322;49.488;8.480;2024-03-17T05:04:04;7.22;;;3.92;;
41629;SDS011;27322;49.488;8.480;2024-03-17T05:06:30;7.47;;;4.22;;
41629;SDS011;27322;49.488;8.480;2024-03-17T05:08:56;8.20;;;4.15;;
41629;SDS011;27322;49.488;8.480;2024-03-17T05:11:21;7.28;;;4.13;;
41629;SDS011;27322;49.488;8.480;2024-03-17T05:13:48;8.48;;;4.82;;
41629;SDS011;27322;49.488;8.480;2024-03-17T05:16:14;9.38;;;4.38;;
41629;SDS011;27322;49.488;8.480;2024-03-17T05:18:40;10.30;;;5.00;;
41629;SDS011;27322;49.488;8.480;2024-03-17T05:21:06;8.15;;;4.15;;
41629;SDS011;27322;49.488;8.480;2024-03-17T05:23:34;8.55;;;4.38;;
41629;SDS011;27322;49.488;8.480;2024-03-17T05:26:02;8.55;;;4.43;;
41629;SDS011;27322;49.488;8.480;2024-03-17T05:28:31;7.38;;;3.90;;
41629;SDS011;27322;49.488;8.480;2024-03-17T05:30:57;8.15;;;3.85;;
41629;SDS011;27322;49.488;8.480;2024-03-17T05:33:24;6.95;;;3.95;;
41629;SDS011;27322;49.488;8.480;2024-03-17T05:35:51;8.15;;;4.03;;
41629;SDS011;27322;49.488;8.480;2024-03-17T05:38:24;7.55;;;4.28;;
41629;SDS011;27322;49.488;8.480;2024-03-17T05:40:54;7.60;;;3.63;;
41629;SDS011;27322;49.488;8.480;2024-03-17T05:43:27;7.32;;;3.95;;
41629;SDS011;27322;49.488;8.480;2024-03-17T05:46:06;6.00;;;3.58;;
41629;SDS011;27322;49.488;8.480;2024-03-17T05:48:34;6.78;;;3.20;;
41629;SDS011;27322;49.488;8.480;2024-03-17T05:51:07;7.95;;;3.30;;
41629;SDS011;27322;49.488;8.480;2024-03-17T05:53:33;7.60;;;3.55;;
41629;SDS011;27322;49.488;8.480;2024-03-17T05:56:00;6.55;;;3.08;;
41629;SDS011;27322;49.488;8.480;2024-03-17T05:58:27;6.05;;;3.05;;
41629;SDS011;27322;49.488;8.480;2024-03-17T06:00:52;5.30;;;2.90;;
41629;SDS011;27322;49.488;8.480;2024-03-17T06:03:18;8.00;;;2.85;;
41629;SDS011;27322;49.488;8.480;2024-03-17T06:05:44;5.35;;;2.70;;
41629;SDS011;27322;49.488;8.480;2024-03-17T06:08:11;6.28;;;3.15;;
41629;SDS011;27322;49.488;8.480;2024-03-17T06:10:37;7.20;;;3.05;;
41629;SDS011;27322;49.488;8.480;2024-03-17T06:13:07;6.85;;;3.25;;
41629;SDS011;27322;49.488;8.480;2024-03-17T06:15:37;8.20;;;3.45;;
41629;SDS011;27322;49.488;8.480;2024-03-17T06:18:03;7.07;;;3.72;;
41629;SDS011;27322;49.488;8.480;2024-03-17T06:20:29;8.90;;;2.92;;
41629;SDS011;27322;49.488;8.480;2024-03-17T06:22:54;5.38;;;2.95;;
41629;SDS011;27322;49.488;8.480;2024-03-17T06:25:21;6.32;;;2.92;;
41629;SDS011;27322;49.488;8.480;2024-03-17T06:27:49;5.97;;;2.92;;
41629;SDS011;27322;49.488;8.480;2024-03-17T06:30:15;6.07;;;2.75;;
41629;SDS011;27322;49.488;8.480;2024-03-17T06:32:41;6.63;;;3.20;;
41629;SDS011;27322;49.488;8.480;2024-03-17T06:35:08;8.50;;;3.42;;
41629;SDS011;27322;49.488;8.480;2024-03-17T06:37:34;5.47;;;2.72;;
41629;SDS011;27322;49.488;8.480;2024-03-17T06:40:00;6.47;;;2.50;;
41629;SDS011;27322;49.488;8.480;2024-03-17T06:42:32;5.47;;;2.60;;
41629;SDS011;27322;49.488;8.480;2024-03-17T06:44:57;6.40;;;2.67;;
41629;SDS011;27322;49.488;8.480;2024-03-17T06:47:23;4.85;;;2.35;;
41629;SDS011;27322;49.488;8.480;2024-03-17T06:49:50;6.13;;;2.95;;
41629;SDS011;27322;49.488;8.480;2024-03-17T06:52:16;5.78;;;2.70;;
41629;SDS011;27322;49.488;8.480;2024-03-17T06:54:41;5.88;;;2.50;;
41629;SDS011;27322;49.488;8.480;2024-03-17T06:57:07;5.32;;;2.63;;
41629;SDS011;27322;49.488;8.480;2024-03-17T06:59:33;5.35;;;3.05;;
41629;SDS011;27322;49.488;8.480;2024-03-17T07:01:58;5.70;;;3.05;;
41629;SDS011;27322;49.488;8.480;2024-03-17T07:04:24;6.05;;;3.08;;
41629;SDS011;27322;49.488;8.480;2024-03-17T07:06:49;7.00;;;3.35;;
41629;SDS011;27322;49.488;8.480;2024-03-17T07:09:15;5.95;;;2.88;;
41629;SDS011;27322;49.488;8.480;2024-03-17T07:11:42;5.00;;;2.53;;
41629;SDS011;27322;49.488;8.480;2024-03-17T07:14:09;5.07;;;2.65;;
41629;SDS011;27322;49.488;8.480;2024-03-17T07:16:34;8.68;;;3.25;;
41629;SDS011;27322;49.488;8.480;2024-03-17T07:19:01;6.90;;;3.60;;
41629;SDS011;27322;49.488;8.480;2024-03-17T07:21:27;6.40;;;3.83;;
41629;SDS011;27322;49.488;8.480;2024-03-17T07:23:53;8.73;;;4.25;;
41629;SDS011;27322;49.488;8.480;2024-03-17T07:26:18;9.82;;;4.63;;
41629;SDS011;27322;49.488;8.480;2024-03-17T07:28:44;7.70;;;4.15;;
41629;SDS011;27322;49.488;8.480;2024-03-17T07:31:10;8.32;;;4.35;;
41629;SDS011;27322;49.488;8.480;2024-03-17T07:33:36;8.30;;;3.97;;
41629;SDS011;27322;49.488;8.480;2024-03-17T07:36:02;8.77;;;4.75;;
41629;SDS011;27322;49.488;8.480;2024-03-17T07:38:31;9.75;;;4.55;;
41629;SDS011;27322;49.488;8.480;2024-03-17T07:41:00;8.82;;;4.78;;
41629;SDS011;27322;49.488;8.480;2024-03-17T07:43:27;8.52;;;4.65;;
41629;SDS011;27322;49.488;8.480;2024-03-17T07:48:38;9.43;;;4.78;;
41629;SDS011;27322;49.488;8.480;2024-03-17T07:51:06;9.00;;;4.97;;
41629;SDS011;27322;49.488;8.480;2024-03-17T07:53:33;10.15;;;5.95;;
41629;SDS011;27322;49.488;8.480;2024-03-17T07:56:00;12.32;;;5.75;;
41629;SDS011;27322;49.488;8.480;2024-03-17T07:58:27;11.80;;;6.20;;
41629;SDS011;27322;49.488;8.480;2024-03-17T08:00:56;10.40;;;5.65;;
41629;SDS011;27322;49.488;8.480;2024-03-17T08:03:24;10.40;;;5.18;;
41629;SDS011;27322;49.488;8.480;2024-03-17T08:05:50;12.10;;;5.15;;
41629;SDS011;27322;49.488;8.480;2024-03-17T08:08:17;9.60;;;5.50;;
41629;SDS011;27322;49.488;8.480;2024-03-17T08:10:43;11.15;;;5.38;;
41629;SDS011;27322;49.488;8.480;2024-03-17T08:13:09;9.40;;;5.20;;
41629;SDS011;27322;49.488;8.480;2024-03-17T08:15:35;11.00;;;5.93;;
41629;SDS011;27322;49.488;8.480;2024-03-17T08:18:01;8.27;;;4.70;;
41629;SDS011;27322;49.488;8.480;2024-03-17T08:20:28;13.73;;;5.70;;
41629;SDS011;27322;49.488;8.480;2024-03-17T08:22:54;9.82;;;5.15;;
41629;SDS011;27322;49.488;8.480;2024-03-17T08:25:20;9.35;;;5.05;;
41629;SDS011;27322;49.488;8.480;2024-03-17T08:27:46;8.98;;;4.68;;
41629;SDS011;27322;49.488;8.480;2024-03-17T08:30:11;9.88;;;4.95;;
41629;SDS011;27322;49.488;8.480;2024-03-17T08:32:38;9.55;;;4.97;;
41629;SDS011;27322;49.488;8.480;2024-03-17T08:35:04;7.63;;;4.10;;
41629;SDS011;27322;49.488;8.480;2024-03-17T08:37:31;9.60;;;4.22;;
41629;SDS011;27322;49.488;8.480;2024-03-17T08:39:57;7.07;;;4.13;;
41629;SDS011;27322;49.488;8.480;2024-03-17T08:42:22;8.95;;;4.32;;
41629;SDS011;27322;49.488;8.480;2024-03-17T08:44:48;11.60;;;4.65;;
41629;SDS011;27322;49.488;8.480;2024-03-17T08:47:13;7.55;;;4.45;;
41629;SDS011;27322;49.488;8.480;2024-03-17T08:49:39;9.93;;;4.50;;
41629;SDS011;27322;49.488;8.480;2024-03-17T08:52:05;8.68;;;4.32;;
41629;SDS011;27322;49.488;8.480;2024-03-17T08:54:30;6.88;;;3.90;;
41629;SDS011;27322;49.488;8.480;2024-03-17T08:56:56;8.27;;;3.92;;
41629;SDS011;27322;49.488;8.480;2024-03-17T08:59:21;6.85;;;3.92;;
41629;SDS011;27322;49.488;8.480;2024-03-17T09:01:47;6.57;;;4.35;;
41629;SDS011;27322;49.488;8.480;2024-03-17T09:04:12;8.07;;;4.60;;
41629;SDS011;27322;49.488;8.480;2024-03-17T09:06:38;6.05;;;3.65;;
41629;SDS011;27322;49.488;8.480;2024-03-17T09:09:04;6.40;;;3.75;;
41629;SDS011;27322;49.488;8.480;2024-03-17T09:11:31;8.07;;;4.10;;
41629;SDS011;27322;49.488;8.480;2024-03-17T09:13:56;8.05;;;4.28;;
41629;SDS011;27322;49.488;8.480;2024-03-17T09:16:23;8.75;;;4.03;;
41629;SDS011;27322;49.488;8.480;2024-03-17T09:18:50;7.03;;;4.20;;
41629;SDS011;27322;49.488;8.480;2024-03-17T09:21:16;7.82;;;4.13;;
41629;SDS011;27322;49.488;8.480;2024-03-17T09:23:42;7.93;;;3.88;;
41629;SDS011;27322;49.488;8.480;2024-03-17T09:26:09;8.48;;;4.32;;
41629;SDS011;27322;49.488;8.480;2024-03-17T09:28:38;9.32;;;4.72;;
41629;SDS011;27322;49.488;8.480;2024-03-17T09:31:04;7.78;;;3.80;;
41629;SDS011;27322;49.488;8.480;2024-03-17T09:33:32;6.72;;;3.67;;
41629;SDS011;27322;49.488;8.480;2024-03-17T09:38:28;6.03;;;3.63;;
41629;SDS011;27322;49.488;8.480;2024-03-17T09:40:56;8.23;;;3.72;;
41629;SDS011;27322;49.488;8.480;2024-03-17T09:43:28;4.95;;;2.78;;
41629;SDS011;27322;49.488;8.480;2024-03-17T09:45:56;6.88;;;3.55;;
41629;SDS011;27322;49.488;8.480;2024-03-17T09:48:26;5.90;;;3.00;;
41629;SDS011;27322;49.488;8.480;2024-03-17T09:50:54;7.50;;;3.75;;
41629;SDS011;27322;49.488;8.480;2024-03-17T09:53:31;7.72;;;3.42;;
41629;SDS011;27322;49.488;8.480;2024-03-17T09:55:59;7.95;;;3.70;;
41629;SDS011;27322;49.488;8.480;2024-03-17T09:58:28;7.15;;;3.70;;
41629;SDS011;27322;49.488;8.480;2024-03-17T10:00:53;7.50;;;3.38;;
41629;SDS011;27322;49.488;8.480;2024-03-17T10:06:05;6.20;;;3.10;;
41629;SDS011;27322;49.488;8.480;2024-03-17T10:08:31;5.97;;;3.25;;
41629;SDS011;27322;49.488;8.480;2024-03-17T10:10:59;5.18;;;2.60;;
41629;SDS011;27322;49.488;8.480;2024-03-17T10:13:24;5.75;;;3.10;;
41629;SDS011;27322;49.488;8.480;2024-03-17T10:15:50;7.30;;;3.25;;
41629;SDS011;27322;49.488;8.480;2024-03-17T10:18:22;6.57;;;3.22;;
41629;SDS011;27322;49.488;8.480;2024-03-17T10:20:48;6.80;;;3.60;;
41629;SDS011;27322;49.488;8.480;2024-03-17T10:23:20;7.25;;;3.97;;
41629;SDS011;27322;49.488;8.480;2024-03-17T10:25:45;6.88;;;3.47;;
41629;SDS011;27322;49.488;8.480;2024-03-17T10:28:11;7.28;;;3.72;;
41629;SDS011;27322;49.488;8.480;2024-03-17T10:30:38;5.70;;;3.45;;
41629;SDS011;27322;49.488;8.480;2024-03-17T10:33:05;8.23;;;3.20;;
41629;SDS011;27322;49.488;8.480;2024-03-17T10:35:37;7.03;;;3.22;;
41629;SDS011;27322;49.488;8.480;2024-03-17T10:38:08;5.75;;;3.20;;
41629;SDS011;27322;49.488;8.480;2024-03-17T10:40:34;5.47;;;3.17;;
41629;SDS011;27322;49.488;8.480;2024-03-17T10:43:03;6.05;;;3.30;;
41629;SDS011;27322;49.488;8.480;2024-03-17T10:45:29;6.85;;;3.30;;
41629;SDS011;27322;49.488;8.480;2024-03-17T10:48:03;5.45;;;2.80;;
41629;SDS011;27322;49.488;8.480;2024-03-17T10:50:38;6.13;;;2.78;;
41629;SDS011;27322;49.488;8.480;2024-03-17T10:53:04;5.43;;;2.63;;
41629;SDS011;27322;49.488;8.480;2024-03-17T10:55:44;5.57;;;2.75;;
41629;SDS011;27322;49.488;8.480;2024-03-17T10:58:21;6.25;;;2.90;;
41629;SDS011;27322;49.488;8.480;2024-03-17T11:00:53;7.15;;;3.00;;
41629;SDS011;27322;49.488;8.480;2024-03-17T11:03:18;7.70;;;3.55;;
41629;SDS011;27322;49.488;8.480;2024-03-17T11:05:44;6.35;;;3.28;;
41629;SDS011;27322;49.488;8.480;2024-03-17T11:08:15;4.93;;;2.70;;
41629;SDS011;27322;49.488;8.480;2024-03-17T11:10:48;6.53;;;2.67;;
41629;SDS011;27322;49.488;8.480;2024-03-17T11:13:36;5.82;;;2.60;;
41629;SDS011;27322;49.488;8.480;2024-03-17T11:16:04;5.32;;;3.05;;
41629;SDS011;27322;49.488;8.480;2024-03-17T11:18:49;5.80;;;2.65;;
41629;SDS011;27322;49.488;8.480;2024-03-17T11:21:19;5.63;;;2.83;;
41629;SDS011;27322;49.488;8.480;2024-03-17T11:23:54;5.68;;;3.00;;
41629;SDS011;27322;49.488;8.480;2024-03-17T11:26:29;6.53;;;2.80;;
41629;SDS011;27322;49.488;8.480;2024-03-17T11:28:58;5.60;;;2.55;;
41629;SDS011;27322;49.488;8.480;2024-03-17T11:34:30;5.88;;;2.40;;
41629;SDS011;27322;49.488;8.480;2024-03-17T11:37:02;4.13;;;2.03;;
41629;SDS011;27322;49.488;8.480;2024-03-17T11:39:47;5.43;;;2.38;;
41629;SDS011;27322;49.488;8.480;2024-03-17T11:42:16;5.07;;;2.33;;
41629;SDS011;27322;49.488;8.480;2024-03-17T11:44:42;6.07;;;2.92;;
41629;SDS011;27322;49.488;8.480;2024-03-17T11:47:18;5.47;;;2.58;;
41629;SDS011;27322;49.488;8.480;2024-03-17T11:49:44;6.57;;;2.95;;
41629;SDS011;27322;49.488;8.480;2024-03-17T11:52:10;5.65;;;2.58;;
41629;SDS011;27322;49.488;8.480;2024-03-17T11:54:41;4.75;;;2.22;;
41629;SDS011;27322;49.488;8.480;2024-03-17T11:59:38;6.60;;;2.70;;
41629;SDS011;27322;49.488;8.480;2024-03-17T12:02:17;5.40;;;2.70;;
41629;SDS011;27322;49.488;8.480;2024-03-17T12:04:47;4.50;;;2.28;;
41629;SDS011;27322;49.488;8.480;2024-03-17T12:07:16;6.03;;;2.80;;
41629;SDS011;27322;49.488;8.480;2024-03-17T12:09:43;5.80;;;2.40;;
41629;SDS011;27322;49.488;8.480;2024-03-17T12:12:20;5.20;;;2.70;;
41629;SDS011;27322;49.488;8.480;2024-03-17T12:14:48;5.35;;;2.25;;
41629;SDS011;27322;49.488;8.480;2024-03-17T12:17:20;4.53;;;2.38;;
41629;SDS011;27322;49.488;8.480;2024-03-17T12:19:47;6.47;;;2.67;;
41629;SDS011;27322;49.488;8.480;2024-03-17T12:22:15;5.63;;;2.50;;
41629;SDS011;27322;49.488;8.480;2024-03-17T12:24:47;5.70;;;2.20;;
41629;SDS011;27322;49.488;8.480;2024-03-17T12:27:18;4.50;;;2.33;;
41629;SDS011;27322;49.488;8.480;2024-03-17T12:29:53;5.05;;;2.75;;
41629;SDS011;27322;49.488;8.480;2024-03-17T12:32:20;4.15;;;2.10;;
41629;SDS011;27322;49.488;8.480;2024-03-17T12:34:49;5.05;;;2.25;;
41629;SDS011;27322;49.488;8.480;2024-03-17T12:37:19;5.00;;;2.15;;
41629;SDS011;27322;49.488;8.480;2024-03-17T12:39:46;6.38;;;2.47;;
41629;SDS011;27322;49.488;8.480;2024-03-17T12:42:13;6.05;;;2.70;;
41629;SDS011;27322;49.488;8.480;2024-03-17T12:44:48;5.20;;;2.67;;
41629;SDS011;27322;49.488;8.480;2024-03-17T12:47:15;6.10;;;2.90;;
41629;SDS011;27322;49.488;8.480;2024-03-17T12:49:48;6.35;;;2.78;;
41629;SDS011;27322;49.488;8.480;2024-03-17T12:52:21;5.80;;;3.20;;
41629;SDS011;27322;49.488;8.480;2024-03-17T12:57:48;7.40;;;2.63;;
41629;SDS011;27322;49.488;8.480;2024-03-17T13:00:33;7.28;;;2.80;;
41629;SDS011;27322;49.488;8.480;2024-03-17T13:03:00;5.45;;;2.33;;
41629;SDS011;27322;49.488;8.480;2024-03-17T13:05:29;4.93;;;2.70;;
41629;SDS011;27322;49.488;8.480;2024-03-17T13:07:56;6.28;;;2.50;;
41629;SDS011;27322;49.488;8.480;2024-03-17T13:10:23;7.53;;;2.70;;
41629;SDS011;27322;49.488;8.480;2024-03-17T13:12:57;5.10;;;2.38;;
41629;SDS011;27322;49.488;8.480;2024-03-17T13:15:30;6.13;;;2.38;;
41629;SDS011;27322;49.488;8.480;2024-03-17T13:18:07;4.20;;;2.38;;
41629;SDS011;27322;49.488;8.480;2024-03-17T13:20:33;4.72;;;2.50;;
41629;SDS011;27322;49.488;8.480;2024-03-17T13:22:59;5.60;;;2.38;;
41629;SDS011;27322;49.488;8.480;2024-03-17T13:25:26;4.88;;;2.67;;
41629;SDS011;27322;49.488;8.480;2024-03-17T13:27:58;5.07;;;2.58;;
41629;SDS011;27322;49.488;8.480;2024-03-17T13:30:23;4.68;;;2.20;;
41629;SDS011;27322;49.488;8.480;2024-03-17T13:32:51;5.05;;;2.50;;
41629;SDS011;27322;49.488;8.480;2024-03-17T13:35:29;3.80;;;1.90;;
41629;SDS011;27322;49.488;8.480;2024-03-17T13:37:58;7.35;;;2.80;;
41629;SDS011;27322;49.488;8.480;2024-03-17T13:40:27;4.30;;;1.90;;
41629;SDS011;27322;49.488;8.480;2024-03-17T13:42:54;6.68;;;2.58;;
41629;SDS011;27322;49.488;8.480;2024-03-17T13:45:21;6.97;;;2.60;;
41629;SDS011;27322;49.488;8.480;2024-03-17T13:47:56;4.47;;;2.13;;
41629;SDS011;27322;49.488;8.480;2024-03-17T13:50:24;4.43;;;2.08;;
41629;SDS011;27322;49.488;8.480;2024-03-17T13:52:50;4.85;;;2.15;;
41629;SDS011;27322;49.488;8.480;2024-03-17T13:55:20;4.82;;;2.00;;
41629;SDS011;27322;49.488;8.480;2024-03-17T13:57:50;4.38;;;2.20;;
41629;SDS011;27322;49.488;8.480;2024-03-17T14:00:20;4.15;;;1.95;;
41629;SDS011;27322;49.488;8.480;2024-03-17T14:02:47;5.40;;;1.83;;
41629;SDS011;27322;49.488;8.480;2024-03-17T14:05:18;4.82;;;2.08;;
41629;SDS011;27322;49.488;8.480;2024-03-17T14:07:47;5.07;;;2.30;;
41629;SDS011;27322;49.488;8.480;2024-03-17T14:10:15;4.13;;;1.70;;
41629;SDS011;27322;49.488;8.480;2024-03-17T14:12:41;5.13;;;2.08;;
41629;SDS011;27322;49.488;8.480;2024-03-17T14:15:08;4.05;;;1.73;;
41629;SDS011;27322;49.488;8.480;2024-03-17T14:17:37;4.47;;;1.75;;
41629;SDS011;27322;49.488;8.480;2024-03-17T14:20:04;4.80;;;1.95;;
41629;SDS011;27322;49.488;8.480;2024-03-17T14:22:35;4.55;;;2.40;;
41629;SDS011;27322;49.488;8.480;2024-03-17T14:25:14;4.28;;;2.25;;
41629;SDS011;27322;49.488;8.480;2024-03-17T14:27:42;6.30;;;2.60;;
41629;SDS011;27322;49.488;8.480;2024-03-17T14:30:09;4.78;;;2.55;;
41629;SDS011;27322;49.488;8.480;2024-03-17T14:32:38;5.45;;;2.75;;
41629;SDS011;27322;49.488;8.480;2024-03-17T14:35:04;5.32;;;2.55;;
41629;SDS011;27322;49.488;8.480;2024-03-17T14:37:30;4.68;;;1.80;;
41629;SDS011;27322;49.488;8.480;2024-03-17T14:39:56;5.38;;;2.28;;
41629;SDS011;27322;49.488;8.480;2024-03-17T14:42:21;4.25;;;1.98;;
41629;SDS011;27322;49.488;8.480;2024-03-17T14:44:47;4.60;;;2.00;;
41629;SDS011;27322;49.488;8.480;2024-03-17T14:47:14;4.22;;;1.90;;
41629;SDS011;27322;49.488;8.480;2024-03-17T14:49:39;5.47;;;2.53;;
41629;SDS011;27322;49.488;8.480;2024-03-17T14:52:06;5.15;;;2.00;;
41629;SDS011;27322;49.488;8.480;2024-03-17T14:54:32;3.22;;;1.77;;
41629;SDS011;27322;49.488;8.480;2024-03-17T14:56:58;3.85;;;1.70;;
41629;SDS011;27322;49.488;8.480;2024-03-17T14:59:23;4.45;;;1.80;;
41629;SDS011;27322;49.488;8.480;2024-03-17T15:01:49;4.97;;;1.95;;
41629;SDS011;27322;49.488;8.480;2024-03-17T15:04:15;3.45;;;1.88;;
41629;SDS011;27322;49.488;8.480;2024-03-17T15:06:41;6.22;;;1.98;;
41629;SDS011;27322;49.488;8.480;2024-03-17T15:09:08;6.32;;;2.00;;
41629;SDS011;27322;49.488;8.480;2024-03-17T15:11:34;6.47;;;2.05;;